Time;durP1;ratioP1;P1;durP2;ratioP2;P2;SDS_P1;SDS_P2;PMS_P1;PMS_P2;Temp;Humidity;BMP_temperature;BMP_pressure;BME280_temperature;BME280_humidity;BME280_pressure;Samples;Min_cycle;Max_cycle;Signal;HPM_P1;HPM_P2
2023/05/25 00:00:43;;;;;;;8.60;4.32;;;;;;;8.91;100.00;98929.03;2602834;28;20413;-89
2023/05/25 00:02:18;;;;;;;10.77;4.50;;;;;;;8.51;100.00;98929.53;2590828;28;20065;-89
2023/05/25 00:03:34;;;;;;;10.90;5.82;;;;;;;8.30;100.00;98927.09;2599587;28;20108;-89
2023/05/25 00:04:51;;;;;;;11.75;4.63;;;;;;;8.27;100.00;98926.28;2603423;28;20048;-89
2023/05/25 00:06:06;;;;;;;11.02;4.15;;;;;;;8.19;100.00;98927.22;2601904;28;20080;-89
2023/05/25 00:07:22;;;;;;;11.85;4.68;;;;;;;8.29;100.00;98921.91;2604520;28;20103;-90
2023/05/25 00:08:39;;;;;;;11.82;4.72;;;;;;;8.45;100.00;98926.09;2602637;28;20049;-90
2023/05/25 00:09:54;;;;;;;9.75;4.53;;;;;;;8.51;100.00;98921.69;2603897;28;20651;-89
2023/05/25 00:11:11;;;;;;;11.80;4.40;;;;;;;8.30;100.00;98927.09;2603438;28;20045;-89
2023/05/25 00:12:26;;;;;;;13.80;5.10;;;;;;;8.18;100.00;98925.50;2591230;28;20049;-90
2023/05/25 00:13:42;;;;;;;14.02;4.80;;;;;;;8.19;100.00;98928.97;2595394;28;20061;-90
2023/05/25 00:14:58;;;;;;;10.70;4.82;;;;;;;8.46;100.00;98925.22;2602335;28;20049;-90
2023/05/25 00:16:13;;;;;;;11.82;4.32;;;;;;;8.76;100.00;98930.97;2606566;28;20080;-90
2023/05/25 00:17:30;;;;;;;9.70;4.15;;;;;;;8.64;100.00;98922.41;2602815;28;20065;-90
2023/05/25 00:18:47;;;;;;;11.52;4.38;;;;;;;8.41;100.00;98926.97;2605492;28;20119;-90
2023/05/25 00:20:06;;;;;;;11.45;5.07;;;;;;;8.31;100.00;98928.84;2604283;28;20120;-90
2023/05/25 00:21:24;;;;;;;9.00;4.65;;;;;;;8.33;100.00;98929.69;2605541;28;20492;-89
2023/05/25 00:22:43;;;;;;;9.65;4.65;;;;;;;8.37;100.00;98930.50;2604397;28;20049;-90
2023/05/25 00:23:59;;;;;;;11.98;4.82;;;;;;;8.48;100.00;98933.00;2605945;28;20045;-90
2023/05/25 00:25:15;;;;;;;10.88;4.50;;;;;;;8.48;100.00;98928.66;2605887;28;20092;-90
2023/05/25 00:26:30;;;;;;;9.15;4.55;;;;;;;8.39;100.00;98927.91;2605783;28;20064;-90
2023/05/25 00:27:46;;;;;;;13.07;4.72;;;;;;;8.61;100.00;98925.94;2604531;28;20882;-90
2023/05/25 00:29:02;;;;;;;11.82;4.43;;;;;;;8.78;100.00;98923.09;2605789;28;20698;-88
2023/05/25 00:30:18;;;;;;;10.90;4.50;;;;;;;8.53;100.00;98914.72;2605931;28;20136;-90
2023/05/25 00:31:35;;;;;;;9.90;4.50;;;;;;;8.15;100.00;98917.69;2604258;28;20046;-90
2023/05/25 00:32:52;;;;;;;10.40;4.60;;;;;;;8.06;100.00;98915.19;2602520;28;20096;-89
2023/05/25 00:34:08;;;;;;;12.25;4.22;;;;;;;8.01;100.00;98915.25;2606001;28;20072;-89
2023/05/25 00:35:23;;;;;;;10.75;4.43;;;;;;;7.99;100.00;98918.72;2605152;28;20049;-90
2023/05/25 00:36:40;;;;;;;11.75;4.95;;;;;;;8.16;100.00;98919.41;2605895;28;20467;-90
2023/05/25 00:37:56;;;;;;;11.77;4.93;;;;;;;8.23;100.00;98924.59;2605048;28;20077;-90
2023/05/25 00:39:15;;;;;;;11.82;4.32;;;;;;;8.04;100.00;98925.63;2605201;28;20120;-90
2023/05/25 00:40:34;;;;;;;11.02;4.93;;;;;;;8.24;100.00;98921.97;2604286;28;20675;-88
2023/05/25 00:41:50;;;;;;;13.55;5.10;;;;;;;8.12;100.00;98924.72;2605365;28;20049;-87
2023/05/25 00:43:07;;;;;;;10.40;4.45;;;;;;;7.94;100.00;98929.19;2604686;28;20052;-87
2023/05/25 00:44:23;;;;;;;9.38;4.43;;;;;;;7.85;100.00;98918.88;2605331;28;20056;-90
2023/05/25 00:45:39;;;;;;;8.20;4.50;;;;;;;8.02;100.00;98918.69;2604626;28;20049;-90
2023/05/25 00:46:54;;;;;;;8.68;4.28;;;;;;;8.04;100.00;98920.41;2604241;28;20485;-88
2023/05/25 00:48:10;;;;;;;13.63;5.40;;;;;;;8.13;100.00;98918.63;2605660;28;20073;-88
2023/05/25 00:49:29;;;;;;;8.30;4.47;;;;;;;8.39;100.00;98918.31;2605215;28;20489;-88
2023/05/25 00:50:45;;;;;;;7.88;4.00;;;;;;;8.17;100.00;98918.56;2606953;28;20049;-89
2023/05/25 00:52:02;;;;;;;7.75;3.80;;;;;;;7.74;100.00;98917.22;2605832;28;20081;-89
2023/05/25 00:53:17;;;;;;;10.43;4.65;;;;;;;7.76;100.00;98914.63;2605352;28;20076;-90
2023/05/25 00:54:34;;;;;;;9.18;4.93;;;;;;;7.94;100.00;98925.75;2604241;28;20505;-89
2023/05/25 00:55:58;;;;;;;13.30;4.63;;;;;;;7.68;100.00;98916.41;2605250;28;20084;-89
2023/05/25 00:57:15;;;;;;;14.18;5.45;;;;;;;8.08;100.00;98923.00;2602422;28;20077;-90
2023/05/25 00:58:33;;;;;;;13.88;4.88;;;;;;;8.00;100.00;98917.84;2604062;28;20045;-89
2023/05/25 00:59:53;;;;;;;8.52;4.80;;;;;;;7.97;100.00;98921.38;2604138;28;20049;-88
2023/05/25 01:01:11;;;;;;;10.32;4.57;;;;;;;7.78;100.00;98923.28;2605540;28;20045;-89
2023/05/25 01:02:28;;;;;;;12.35;4.82;;;;;;;7.81;100.00;98919.75;2605985;28;20089;-88
2023/05/25 01:03:52;;;;;;;11.23;4.85;;;;;;;7.68;100.00;98932.06;2605466;28;20052;-89
2023/05/25 01:05:09;;;;;;;9.60;4.57;;;;;;;7.56;100.00;98922.59;2604868;28;20297;-90
2023/05/25 01:06:29;;;;;;;9.60;4.68;;;;;;;7.76;100.00;98928.50;2605023;28;20063;-89
2023/05/25 01:07:45;;;;;;;11.88;5.10;;;;;;;7.99;100.00;98926.56;2604425;28;20644;-89
2023/05/25 01:09:04;;;;;;;9.73;5.32;;;;;;;7.80;100.00;98933.69;2604997;28;20045;-90
2023/05/25 01:10:21;;;;;;;10.18;4.85;;;;;;;7.78;100.00;98926.75;2593613;28;20046;-89
2023/05/25 01:11:41;;;;;;;9.32;4.72;;;;;;;7.77;100.00;98926.78;2597677;28;20053;-89
2023/05/25 01:12:58;;;;;;;9.60;4.50;;;;;;;7.83;100.00;98933.66;2602087;28;20057;-89
2023/05/25 01:14:17;;;;;;;10.60;4.50;;;;;;;7.67;100.00;98932.94;2605429;28;20081;-89
2023/05/25 01:15:34;;;;;;;15.00;4.75;;;;;;;7.55;100.00;98934.75;2602508;28;20049;-89
2023/05/25 01:16:50;;;;;;;16.45;5.03;;;;;;;7.67;100.00;98932.94;2604991;28;20049;-89
2023/05/25 01:18:08;;;;;;;11.20;5.10;;;;;;;7.91;100.00;98932.72;2604234;28;20054;-88
2023/05/25 01:19:24;;;;;;;9.05;4.57;;;;;;;7.88;100.00;98929.28;2605503;28;20073;-89
2023/05/25 01:21:13;;;;;;;10.07;3.80;;;;;;;7.57;100.00;98934.75;2603207;28;20103;-89
2023/05/25 01:22:39;;;;;;;10.10;4.82;;;;;;;7.42;100.00;98939.19;2596554;28;20064;-89
2023/05/25 01:24:07;;;;;;;10.65;5.15;;;;;;;7.58;100.00;98944.28;2603117;28;20339;-89
2023/05/25 01:25:46;;;;;;;13.07;4.07;;;;;;;7.44;100.00;98947.88;2596652;28;20046;-91
2023/05/25 01:27:13;;;;;;;12.43;5.18;;;;;;;7.48;100.00;98946.13;2604128;28;20049;-89
2023/05/25 01:28:34;;;;;;;11.05;4.97;;;;;;;7.54;100.00;98948.66;2605747;28;20547;-89
2023/05/25 01:29:51;;;;;;;11.77;5.03;;;;;;;7.39;100.00;98952.22;2604401;28;20092;-89
2023/05/25 01:31:08;;;;;;;8.98;4.65;;;;;;;7.41;100.00;98950.50;2602094;28;20220;-89
2023/05/25 01:32:25;;;;;;;10.75;5.45;;;;;;;7.45;100.00;98952.19;2606233;28;20041;-89
2023/05/25 01:33:43;;;;;;;12.90;4.90;;;;;;;7.42;100.00;98960.03;2604028;28;20041;-89
2023/05/25 01:35:00;;;;;;;10.20;5.05;;;;;;;7.45;100.00;98960.00;2604189;28;20052;-90
2023/05/25 01:36:16;;;;;;;10.55;5.00;;;;;;;7.53;100.00;98956.47;2602190;28;20057;-89
2023/05/25 01:37:36;;;;;;;9.32;4.93;;;;;;;7.47;100.00;98953.06;2612316;28;20483;-88
2023/05/25 01:38:51;;;;;;;10.40;4.72;;;;;;;7.37;100.00;98955.75;2613051;28;20068;-89
2023/05/25 01:40:08;;;;;;;9.85;4.97;;;;;;;7.45;100.00;98957.41;2615715;28;20056;-89
2023/05/25 01:41:24;;;;;;;8.20;4.53;;;;;;;7.48;100.00;98964.34;2615169;28;20044;-88
2023/05/25 01:42:39;;;;;;;10.23;5.13;;;;;;;7.57;100.00;98958.19;2614385;28;20163;-89
2023/05/25 01:43:55;;;;;;;12.73;4.70;;;;;;;7.57;100.00;98963.41;2614378;28;20052;-89
2023/05/25 01:45:13;;;;;;;13.60;4.88;;;;;;;7.23;100.00;98968.81;2613781;28;20049;-89
2023/05/25 01:46:36;;;;;;;9.90;4.10;;;;;;;6.95;100.00;98966.38;2615565;28;20056;-89
2023/05/25 01:48:05;;;;;;;9.57;4.70;;;;;;;7.13;100.00;98971.50;2613530;28;20095;-89
2023/05/25 01:49:30;;;;;;;8.48;4.97;;;;;;;7.07;100.00;98964.59;2614658;28;20086;-89
2023/05/25 01:50:56;;;;;;;11.18;5.35;;;;;;;7.16;100.00;98960.19;2615558;28;20048;-89
2023/05/25 01:52:18;;;;;;;9.52;4.55;;;;;;;7.10;100.00;98958.47;2616036;28;20052;-89
2023/05/25 01:53:40;;;;;;;11.73;5.00;;;;;;;7.09;100.00;98953.31;2616543;28;20076;-89
2023/05/25 01:55:02;;;;;;;9.90;5.53;;;;;;;7.10;100.00;98962.84;2614373;28;20606;-91
2023/05/25 01:56:20;;;;;;;9.45;4.60;;;;;;;7.04;100.00;98963.72;2614320;28;20091;-89
2023/05/25 01:57:40;;;;;;;8.68;4.32;;;;;;;7.24;100.00;98968.84;2613350;28;20059;-89
2023/05/25 01:58:57;;;;;;;14.02;5.13;;;;;;;7.23;100.00;98955.81;2614296;28;20113;-89
2023/05/25 02:00:14;;;;;;;9.55;5.00;;;;;;;7.37;100.00;98963.56;2614226;28;20139;-89
2023/05/25 02:01:32;;;;;;;13.65;5.03;;;;;;;7.40;100.00;98959.16;2612878;28;20460;-89
2023/05/25 02:02:49;;;;;;;9.98;4.75;;;;;;;7.42;100.00;98956.56;2612906;28;20080;-89
2023/05/25 02:04:05;;;;;;;10.05;5.38;;;;;;;7.45;100.00;98960.00;2615716;28;20049;-89
2023/05/25 02:05:20;;;;;;;11.20;5.43;;;;;;;7.31;100.00;98961.84;2615491;28;20144;-89
2023/05/25 02:06:37;;;;;;;10.07;4.50;;;;;;;7.23;100.00;98961.00;2615096;28;20056;-89
2023/05/25 02:07:52;;;;;;;11.68;4.95;;;;;;;7.09;100.00;98956.75;2613696;28;20457;-89
2023/05/25 02:09:08;;;;;;;9.70;5.00;;;;;;;7.02;100.00;98955.91;2615103;28;20064;-89
2023/05/25 02:10:24;;;;;;;8.23;4.35;;;;;;;6.89;100.00;98959.47;2614828;28;20047;-90
2023/05/25 02:11:40;;;;;;;11.80;4.97;;;;;;;6.74;100.00;98958.66;2615445;28;20056;-91
2023/05/25 02:12:55;;;;;;;10.50;4.82;;;;;;;6.84;100.00;98956.88;2613903;28;20045;-89
2023/05/25 02:14:10;;;;;;;13.23;5.10;;;;;;;7.00;100.00;98960.28;2616114;28;20221;-88
2023/05/25 02:15:31;;;;;;;12.20;4.93;;;;;;;6.90;100.00;98961.19;2614966;28;20358;-89
2023/05/25 02:16:47;;;;;;;10.70;4.72;;;;;;;6.57;100.00;98961.34;2613221;28;20056;-88
2023/05/25 02:18:04;;;;;;;9.70;3.85;;;;;;;6.59;100.00;98964.78;2615793;28;20044;-89
2023/05/25 02:19:21;;;;;;;7.72;4.47;;;;;;;6.79;100.00;98961.25;2613570;28;20507;-89
2023/05/25 02:20:36;;;;;;;11.90;4.95;;;;;;;6.97;100.00;98969.81;2614959;28;20071;-89
2023/05/25 02:21:52;;;;;;;9.20;5.18;;;;;;;6.80;100.00;98967.31;2614347;28;20056;-88
2023/05/25 02:23:08;;;;;;;9.30;4.55;;;;;;;6.78;100.00;98967.31;2611569;28;20084;-88
2023/05/25 02:24:24;;;;;;;10.70;4.57;;;;;;;6.96;100.00;98979.41;2614649;28;20559;-89
2023/05/25 02:25:41;;;;;;;8.48;4.53;;;;;;;6.64;100.00;98972.59;2612511;28;20054;-89
2023/05/25 02:26:57;;;;;;;9.63;4.53;;;;;;;6.60;100.00;98976.06;2615414;28;20049;-89
2023/05/25 02:28:13;;;;;;;11.77;4.78;;;;;;;6.83;100.00;98982.91;2614535;28;20049;-88
2023/05/25 02:29:29;;;;;;;10.55;5.18;;;;;;;6.74;100.00;98979.47;2614142;28;20049;-89
2023/05/25 02:30:45;;;;;;;13.48;5.07;;;;;;;6.71;100.00;98976.03;2614439;28;20052;-88
2023/05/25 02:32:00;;;;;;;15.52;4.72;;;;;;;6.55;100.00;98981.25;2613190;28;20045;-89
2023/05/25 02:33:15;;;;;;;9.63;4.90;;;;;;;6.58;100.00;98980.41;2612830;28;20527;-89
2023/05/25 02:34:32;;;;;;;13.77;5.25;;;;;;;6.76;100.00;98982.09;2613764;28;20462;-90
2023/05/25 02:35:48;;;;;;;12.75;5.55;;;;;;;6.77;100.00;98981.22;2616142;28;20097;-90
2023/05/25 02:37:03;;;;;;;11.23;5.28;;;;;;;6.74;100.00;98981.22;2612457;28;20393;-89
2023/05/25 02:38:19;;;;;;;9.75;4.55;;;;;;;6.89;100.00;98981.16;2612321;28;20099;-90
2023/05/25 02:39:35;;;;;;;11.63;5.20;;;;;;;6.85;100.00;98975.97;2613482;28;20427;-90
2023/05/25 02:40:50;;;;;;;9.07;4.45;;;;;;;6.54;100.00;98978.69;2613564;28;20500;-89
2023/05/25 02:42:06;;;;;;;8.55;4.53;;;;;;;6.46;100.00;98978.72;2611428;28;20057;-90
2023/05/25 02:43:22;;;;;;;6.07;4.18;;;;;;;6.48;100.00;98983.00;2615099;28;20130;-90
2023/05/25 02:44:37;;;;;;;9.63;5.40;;;;;;;6.34;100.00;98980.47;2613312;28;20118;-89
2023/05/25 02:45:54;;;;;;;8.30;4.95;;;;;;;6.30;100.00;98983.94;2613753;28;20149;-89
2023/05/25 02:47:09;;;;;;;13.52;5.05;;;;;;;6.38;100.00;98976.13;2613761;28;20098;-90
2023/05/25 02:48:25;;;;;;;8.38;4.50;;;;;;;6.69;100.00;98972.56;2613600;28;20049;-90
2023/05/25 02:49:41;;;;;;;10.95;5.38;;;;;;;6.62;100.00;98983.00;2613457;28;20049;-91
2023/05/25 02:50:56;;;;;;;15.43;5.43;;;;;;;6.58;100.00;98977.81;2613871;28;20610;-90
2023/05/25 02:52:12;;;;;;;12.32;5.20;;;;;;;6.70;100.00;98976.88;2613088;28;20044;-90
2023/05/25 02:53:28;;;;;;;12.63;4.50;;;;;;;6.71;100.00;98979.50;2614742;28;20059;-90
2023/05/25 02:54:43;;;;;;;12.40;5.80;;;;;;;6.77;100.00;98981.22;2614494;28;20534;-90
2023/05/25 02:56:00;;;;;;;12.23;4.93;;;;;;;6.79;100.00;98987.25;2614061;28;20123;-91
2023/05/25 02:57:16;;;;;;;8.18;4.78;;;;;;;6.42;100.00;98987.38;2611664;28;20076;-90
2023/05/25 02:58:32;;;;;;;11.27;4.70;;;;;;;6.45;100.00;98985.63;2614959;28;20056;-89
2023/05/25 02:59:48;;;;;;;15.88;5.15;;;;;;;6.62;100.00;98996.00;2613887;28;20185;-90
2023/05/25 03:01:04;;;;;;;10.27;5.15;;;;;;;6.48;100.00;98987.38;2612971;28;20507;-90
2023/05/25 03:02:24;;;;;;;11.15;5.53;;;;;;;6.58;100.00;98986.47;2611897;28;20061;-90
2023/05/25 03:03:39;;;;;;;11.02;5.15;;;;;;;6.57;100.00;98987.34;2615373;28;20053;-90
2023/05/25 03:04:55;;;;;;;12.70;4.82;;;;;;;6.51;100.00;98989.97;2614601;28;20223;-89
2023/05/25 03:06:11;;;;;;;9.18;4.95;;;;;;;6.47;100.00;98983.03;2602377;28;20041;-90
2023/05/25 03:07:27;;;;;;;9.40;4.70;;;;;;;6.36;100.00;98983.91;2607701;28;20049;-90
2023/05/25 03:08:43;;;;;;;10.65;5.45;;;;;;;6.50;100.00;98986.50;2613843;28;20081;-90
2023/05/25 03:09:58;;;;;;;10.57;4.50;;;;;;;6.62;100.00;98983.00;2615007;28;20040;-90
2023/05/25 03:11:14;;;;;;;8.60;5.10;;;;;;;6.69;100.00;98981.22;2611714;28;20052;-90
2023/05/25 03:12:30;;;;;;;9.50;4.75;;;;;;;6.78;100.00;98985.53;2613453;28;20110;-90
2023/05/25 03:13:45;;;;;;;11.52;5.10;;;;;;;6.83;100.00;98983.78;2614284;28;20044;-90
2023/05/25 03:15:01;;;;;;;9.23;4.72;;;;;;;6.86;100.00;98991.59;2615328;28;20036;-90
2023/05/25 03:16:16;;;;;;;10.15;4.93;;;;;;;6.74;100.00;98994.22;2615552;28;20071;-90
2023/05/25 03:17:32;;;;;;;9.48;4.93;;;;;;;6.61;100.00;98991.66;2613674;28;20044;-89
2023/05/25 03:18:47;;;;;;;10.48;4.75;;;;;;;6.81;100.00;98995.94;2611774;28;20220;-89
2023/05/25 03:20:04;;;;;;;8.27;4.43;;;;;;;6.87;100.00;98995.03;2613556;28;20075;-90
2023/05/25 03:21:21;;;;;;;12.20;5.53;;;;;;;6.77;100.00;98995.09;2613254;28;20048;-89
2023/05/25 03:22:36;;;;;;;7.78;4.55;;;;;;;6.85;100.00;98996.78;2612630;28;20059;-90
2023/05/25 03:23:52;;;;;;;11.23;4.80;;;;;;;6.75;100.00;98995.97;2613048;28;20048;-92
2023/05/25 03:25:11;;;;;;;8.30;4.53;;;;;;;6.63;100.00;98991.66;2615238;28;20054;-88
2023/05/25 03:26:27;;;;;;;11.00;4.57;;;;;;;6.56;100.00;98996.00;2612062;28;20053;-90
2023/05/25 03:27:43;;;;;;;11.35;4.72;;;;;;;6.65;100.00;98992.53;2615183;28;20084;-90
2023/05/25 03:28:58;;;;;;;6.95;4.47;;;;;;;6.81;100.00;98998.53;2612579;28;20070;-90
2023/05/25 03:30:14;;;;;;;14.32;6.25;;;;;;;6.65;100.00;99000.34;2612960;28;20036;-89
2023/05/25 03:31:30;;;;;;;12.38;5.85;;;;;;;6.69;100.00;98996.84;2612217;28;20056;-90
2023/05/25 03:32:45;;;;;;;8.70;4.70;;;;;;;6.60;100.00;98995.16;2613964;28;20044;-90
2023/05/25 03:34:02;;;;;;;11.32;5.20;;;;;;;6.50;100.00;98989.09;2611107;28;20114;-88
2023/05/25 03:35:18;;;;;;;11.23;5.10;;;;;;;6.48;100.00;98995.19;2615399;28;20080;-90
2023/05/25 03:36:33;;;;;;;10.85;5.13;;;;;;;6.72;100.00;98991.63;2612975;28;20048;-90
2023/05/25 03:37:49;;;;;;;12.15;5.30;;;;;;;6.67;100.00;98995.09;2614984;28;20584;-90
2023/05/25 03:39:05;;;;;;;9.50;4.63;;;;;;;6.36;100.00;98999.53;2612258;28;20495;-90
2023/05/25 03:40:21;;;;;;;8.70;4.88;;;;;;;6.39;100.00;98997.78;2612628;28;20048;-90
2023/05/25 03:41:36;;;;;;;8.95;5.00;;;;;;;6.45;100.00;98992.59;2614423;28;20479;-90
2023/05/25 03:42:52;;;;;;;12.55;5.28;;;;;;;6.59;100.00;99000.34;2612426;28;20159;-89
2023/05/25 03:44:09;;;;;;;10.88;4.85;;;;;;;6.45;100.00;98996.03;2602591;28;20037;-90
2023/05/25 03:45:25;;;;;;;13.25;5.25;;;;;;;6.20;100.00;99000.44;2606291;28;20545;-90
2023/05/25 03:46:40;;;;;;;9.65;4.97;;;;;;;6.28;100.00;99001.25;2612333;28;20060;-90
2023/05/25 03:47:56;;;;;;;11.82;5.43;;;;;;;6.55;100.00;99007.28;2611157;28;20056;-90
2023/05/25 03:49:12;;;;;;;17.88;5.50;;;;;;;6.83;100.00;99008.94;2615732;28;20044;-89
2023/05/25 03:50:28;;;;;;;11.68;5.63;;;;;;;7.05;100.00;99005.41;2614969;28;20045;-89
2023/05/25 03:51:43;;;;;;;10.00;5.05;;;;;;;6.88;100.00;99001.97;2616854;28;20052;-90
2023/05/25 03:52:59;;;;;;;10.63;5.05;;;;;;;6.89;100.00;99004.59;2611824;28;20101;-90
2023/05/25 03:54:15;;;;;;;17.73;5.70;;;;;;;6.79;100.00;98995.06;2616018;28;20996;-90
2023/05/25 03:55:31;;;;;;;10.63;5.18;;;;;;;6.72;100.00;98998.59;2614150;28;20508;-90
2023/05/25 03:56:46;;;;;;;9.35;5.75;;;;;;;6.69;100.00;99002.06;2618005;28;20052;-92
2023/05/25 03:58:02;;;;;;;13.35;5.55;;;;;;;6.86;100.00;99004.59;2614070;28;20088;-90
2023/05/25 03:59:18;;;;;;;10.25;4.88;;;;;;;6.61;100.00;99004.69;2615212;28;20040;-88
2023/05/25 04:00:33;;;;;;;10.43;4.50;;;;;;;6.67;100.00;99003.78;2614385;28;20044;-90
2023/05/25 04:01:49;;;;;;;10.80;5.20;;;;;;;6.85;100.00;99004.59;2616355;28;20198;-89
2023/05/25 04:03:05;;;;;;;11.07;5.57;;;;;;;6.97;100.00;99014.09;2614672;28;20049;-89
2023/05/25 04:04:21;;;;;;;13.25;5.10;;;;;;;6.92;100.00;99011.53;2614303;28;20283;-89
2023/05/25 04:05:37;;;;;;;10.95;5.80;;;;;;;7.00;100.00;99014.09;2615086;28;20076;-88
2023/05/25 04:06:53;;;;;;;10.75;5.43;;;;;;;7.14;100.00;99009.69;2616095;28;20055;-88
2023/05/25 04:08:09;;;;;;;11.30;5.05;;;;;;;7.00;100.00;99012.34;2616175;28;20049;-88
2023/05/25 04:09:25;;;;;;;15.90;5.47;;;;;;;6.97;100.00;99016.69;2615680;28;20124;-89
2023/05/25 04:10:40;;;;;;;11.40;5.22;;;;;;;7.05;100.00;99009.72;2614556;28;20051;-88
2023/05/25 04:11:56;;;;;;;10.77;5.20;;;;;;;7.10;100.00;99010.56;2605649;28;20102;-87
2023/05/25 04:13:12;;;;;;;10.57;5.05;;;;;;;7.03;100.00;99014.06;2610205;28;20790;-89
2023/05/25 04:14:27;;;;;;;12.57;5.45;;;;;;;7.17;100.00;99012.28;2614651;28;20084;-88
2023/05/25 04:15:43;;;;;;;9.73;5.15;;;;;;;7.12;100.00;99016.63;2613935;28;20094;-87
2023/05/25 04:16:59;;;;;;;13.32;5.53;;;;;;;7.15;100.00;99010.53;2604898;28;20076;-88
2023/05/25 04:18:14;;;;;;;12.07;5.10;;;;;;;7.25;100.00;99012.22;2610030;28;20049;-87
2023/05/25 04:19:30;;;;;;;10.70;5.40;;;;;;;7.29;100.00;99007.88;2615402;28;20126;-87
2023/05/25 04:20:46;;;;;;;8.40;4.97;;;;;;;7.00;100.00;99007.13;2616361;28;21068;-87
2023/05/25 04:22:01;;;;;;;11.43;5.07;;;;;;;6.99;100.00;99009.75;2614062;28;20095;-88
2023/05/25 04:23:18;;;;;;;11.10;5.45;;;;;;;7.10;100.00;99007.09;2614175;28;20060;-88
2023/05/25 04:24:34;;;;;;;11.27;5.28;;;;;;;7.17;100.00;99009.66;2614056;28;20077;-87
2023/05/25 04:25:53;;;;;;;10.38;5.93;;;;;;;7.13;100.00;99015.78;2615753;28;20045;-88
2023/05/25 04:27:08;;;;;;;15.80;5.78;;;;;;;7.10;100.00;99014.91;2616037;28;20049;-87
2023/05/25 04:28:24;;;;;;;10.00;5.18;;;;;;;7.07;100.00;99015.78;2614055;28;20043;-87
2023/05/25 04:29:40;;;;;;;14.88;5.38;;;;;;;7.19;100.00;99023.53;2613687;28;20148;-88
2023/05/25 04:30:55;;;;;;;9.73;4.97;;;;;;;7.11;100.00;99022.69;2614259;28;20099;-87
2023/05/25 04:32:16;;;;;;;11.07;6.05;;;;;;;7.30;100.00;99025.25;2614044;28;20092;-87
2023/05/25 04:33:33;;;;;;;10.35;5.97;;;;;;;7.35;100.00;99018.25;2614220;28;21005;-88
2023/05/25 04:34:48;;;;;;;15.40;5.85;;;;;;;7.37;100.00;99016.50;2613669;28;20106;-87
2023/05/25 04:36:04;;;;;;;13.65;6.00;;;;;;;7.45;100.00;99025.16;2614168;28;20045;-89
2023/05/25 04:37:20;;;;;;;13.50;5.57;;;;;;;7.46;100.00;99015.56;2614575;28;20087;-88
2023/05/25 04:38:36;;;;;;;11.48;5.30;;;;;;;7.39;100.00;99022.56;2616744;28;20056;-88
2023/05/25 04:39:52;;;;;;;10.45;5.32;;;;;;;7.38;100.00;99019.97;2601943;28;20162;-87
2023/05/25 04:41:08;;;;;;;14.00;5.75;;;;;;;7.49;100.00;99026.84;2607707;28;20576;-87
2023/05/25 04:42:23;;;;;;;19.48;6.32;;;;;;;7.06;100.00;99027.06;2614526;28;20102;-88
2023/05/25 04:43:39;;;;;;;10.82;5.43;;;;;;;7.53;100.00;99024.22;2614245;28;20111;-88
2023/05/25 04:44:55;;;;;;;12.95;5.30;;;;;;;7.60;100.00;99026.78;2613598;28;20052;-87
2023/05/25 04:46:12;;;;;;;13.68;5.65;;;;;;;7.63;100.00;99025.91;2616518;28;20416;-85
2023/05/25 04:47:29;;;;;;;13.88;5.93;;;;;;;7.60;100.00;99028.53;2613889;28;20049;-85
2023/05/25 04:48:45;;;;;;;14.50;5.80;;;;;;;7.67;100.00;99029.34;2613250;28;20071;-85
2023/05/25 04:50:01;;;;;;;11.55;5.78;;;;;;;7.45;100.00;99030.34;2616086;28;20048;-86
2023/05/25 04:51:17;;;;;;;14.75;5.60;;;;;;;7.70;100.00;99024.13;2614857;28;20068;-86
2023/05/25 04:52:32;;;;;;;10.45;5.45;;;;;;;7.59;100.00;99027.66;2604459;28;21092;-86
2023/05/25 04:53:49;;;;;;;13.50;5.78;;;;;;;7.66;100.00;99025.03;2607050;28;20052;-86
2023/05/25 04:55:06;;;;;;;12.18;6.03;;;;;;;7.88;100.00;99018.75;2614199;28;20044;-87
2023/05/25 04:56:24;;;;;;;11.75;5.68;;;;;;;7.94;100.00;99024.81;2614058;28;20040;-87
2023/05/25 04:57:40;;;;;;;11.55;5.85;;;;;;;7.91;100.00;99020.50;2616033;28;20050;-91
2023/05/25 04:58:55;;;;;;;13.45;6.35;;;;;;;7.86;100.00;99019.66;2614770;28;20083;-90
2023/05/25 05:00:11;;;;;;;11.45;5.53;;;;;;;7.85;100.00;99015.34;2604327;28;20489;-89
2023/05/25 05:01:27;;;;;;;11.18;5.15;;;;;;;7.76;100.00;99021.47;2607845;28;20463;-89
2023/05/25 05:02:43;;;;;;;13.05;5.90;;;;;;;7.94;100.00;99015.25;2613918;28;20658;-90
2023/05/25 05:03:59;;;;;;;12.85;6.32;;;;;;;7.97;100.00;99019.56;2614481;28;20048;-89
2023/05/25 05:05:14;;;;;;;14.63;6.40;;;;;;;7.90;100.00;99016.16;2615335;28;20488;-88
2023/05/25 05:06:31;;;;;;;11.82;5.65;;;;;;;8.12;100.00;99021.22;2614794;28;20067;-89
2023/05/25 05:07:46;;;;;;;10.02;5.40;;;;;;;8.16;100.00;99017.69;2614212;28;20051;-87
2023/05/25 05:09:02;;;;;;;10.85;5.30;;;;;;;7.96;100.00;99013.50;2614474;28;20110;-86
2023/05/25 05:10:18;;;;;;;18.13;7.22;;;;;;;8.15;100.00;99023.78;2614586;28;20053;-85
2023/05/25 05:11:33;;;;;;;12.50;5.28;;;;;;;8.37;100.00;99019.22;2616550;28;20052;-85
2023/05/25 05:12:49;;;;;;;11.35;5.72;;;;;;;8.44;100.00;99030.47;2614354;28;20500;-86
2023/05/25 05:14:04;;;;;;;12.68;5.18;;;;;;;8.28;100.00;99029.75;2614551;28;20455;-86
2023/05/25 05:15:20;;;;;;;11.20;5.85;;;;;;;8.32;100.00;99024.47;2613187;28;20044;-85
2023/05/25 05:16:36;;;;;;;12.05;5.55;;;;;;;8.40;100.00;99026.16;2615369;28;20527;-85
2023/05/25 05:17:52;;;;;;;10.85;5.20;;;;;;;8.40;100.00;99026.16;2613995;28;20052;-85
2023/05/25 05:19:08;;;;;;;12.27;5.63;;;;;;;8.50;100.00;99024.31;2603068;28;20045;-85
2023/05/25 05:20:24;;;;;;;11.57;5.30;;;;;;;8.27;100.00;99021.06;2608155;28;20044;-85
2023/05/25 05:21:39;;;;;;;14.90;4.88;;;;;;;8.19;100.00;99023.75;2612718;28;20057;-85
2023/05/25 05:22:55;;;;;;;12.13;5.53;;;;;;;8.39;100.00;99020.06;2615558;28;20427;-84
2023/05/25 05:24:10;;;;;;;13.07;6.10;;;;;;;8.56;100.00;99022.56;2615401;28;20072;-85
2023/05/25 05:25:26;;;;;;;9.57;5.97;;;;;;;8.62;100.00;99030.31;2614825;28;20422;-85
2023/05/25 05:26:42;;;;;;;12.40;5.63;;;;;;;8.75;100.00;99028.44;2616711;28;20451;-85
2023/05/25 05:27:57;;;;;;;12.15;5.00;;;;;;;8.68;100.00;99036.38;2612407;28;20140;-86
2023/05/25 05:29:13;;;;;;;10.50;5.93;;;;;;;8.80;100.00;99036.22;2612803;28;20109;-85
2023/05/25 05:30:28;;;;;;;13.02;5.75;;;;;;;8.84;100.00;99037.91;2612650;28;20057;-85
2023/05/25 05:31:44;;;;;;;14.02;5.72;;;;;;;8.92;100.00;99034.34;2612313;28;20044;-85
2023/05/25 05:33:00;;;;;;;12.13;6.57;;;;;;;8.82;100.00;99034.47;2612847;28;20049;-84
2023/05/25 05:34:16;;;;;;;13.40;6.07;;;;;;;9.01;100.00;99037.72;2614944;28;20044;-85
2023/05/25 05:35:31;;;;;;;11.38;5.63;;;;;;;8.89;100.00;99041.31;2614392;28;20055;-85
2023/05/25 05:36:47;;;;;;;13.50;6.40;;;;;;;9.06;100.00;99042.03;2613878;28;20054;-85
2023/05/25 05:38:03;;;;;;;14.90;6.10;;;;;;;9.32;100.00;99047.78;2615038;28;20048;-85
2023/05/25 05:39:19;;;;;;;10.45;5.63;;;;;;;9.38;100.00;99048.56;2613531;28;20064;-85
2023/05/25 05:40:35;;;;;;;13.88;6.30;;;;;;;9.59;100.00;99053.53;2602308;28;20045;-85
2023/05/25 05:41:50;;;;;;;10.13;4.40;;;;;;;9.15;100.00;99042.78;2607547;28;20049;-85
2023/05/25 05:43:06;;;;;;;12.60;5.70;;;;;;;9.32;100.00;99044.28;2612918;28;20045;-85
2023/05/25 05:44:22;;;;;;;13.95;4.30;;;;;;;9.05;100.00;99043.75;2612464;28;20049;-85
2023/05/25 05:45:38;;;;;;;13.98;5.70;;;;;;;9.25;100.00;99048.72;2614245;28;20412;-86
2023/05/25 05:46:58;;;;;;;13.55;5.38;;;;;;;9.51;100.00;99052.75;2613926;28;20376;-84
2023/05/25 05:48:14;;;;;;;12.55;4.80;;;;;;;9.54;100.00;99047.47;2615592;28;20075;-89
2023/05/25 05:49:30;;;;;;;13.00;5.45;;;;;;;9.78;100.00;99047.13;2614377;28;20049;-90
2023/05/25 05:50:46;;;;;;;14.50;5.85;;;;;;;9.84;100.00;99041.84;2615025;28;20060;-88
2023/05/25 05:52:02;;;;;;;8.82;4.95;;;;;;;9.94;100.00;99038.19;2615890;28;20052;-87
2023/05/25 05:53:18;;;;;;;13.25;6.05;;;;;;;10.07;100.00;99043.22;2612786;28;20063;-86
2023/05/25 05:54:33;;;;;;;10.77;5.00;;;;;;;9.90;100.00;99036.50;2614938;28;20404;-87
2023/05/25 05:55:53;;;;;;;11.93;5.30;;;;;;;10.12;100.00;99037.00;2615853;28;20053;-88
2023/05/25 05:57:08;;;;;;;10.95;4.68;;;;;;;10.16;100.00;99041.31;2613733;28;20052;-87
2023/05/25 05:58:25;;;;;;;12.48;5.55;;;;;;;10.25;100.00;99042.03;2613766;28;20055;-87